Portada
METAR-TAF:

METAR-TAF

Aeroports :

Moore County Airport

Pinehurst-Southern Pines, Carolina del Nord, Estats Units d'Amèrica

latitud: 35-14N, longitud: 079-24W, altitud: 141 m

Observació

L'informe es va fer fa 33 minuts, a les 21:56 UTC
Vent 5 kt del Nord-Est
Temperatura 3°C
Humitat 41%
Pressió 1028 hPa
Visibilitat: 16.1 km
Cel clar

METAR: KSOP 132156Z AUTO 04005KT 10SM CLR 03/M09 A3035 RMK AO2 SLP289 T00281089

Hora: 17:29 (22:29 UTC)


TAF: manca

Observacions i pronòstics meteorològics de més de 4000 aeroports (METAR i TAF).

Les estacions disponibles són els punts grocs i vermells al mapa.

Posi el ratolí al punt desitjat per veure el nom de l'estació.

Feu clic per veure les observacions i els pronòstics meteorològics.

Per canviar el mapa: feu clic els botons verds amb una creu de color negre per apropar; al botó verd amb un guió per allunyar la imatge; o en les fletxes verdes per a mapes adjacents.


METAR-TAF: